sensor_id;sensor_type;location;lat;lon;timestamp;pressure;altitude;pressure_sealevel;temperature;humidity
70343;BME280;57767;42.068;24.752;2023-10-09T00:00:25;99159.50;;;22.34;39.20
70343;BME280;57767;42.068;24.752;2023-10-09T00:01:35;99162.44;;;22.32;39.30
70343;BME280;57767;42.068;24.752;2023-10-09T00:02:39;99157.06;;;22.32;39.20
70343;BME280;57767;42.068;24.752;2023-10-09T00:03:44;99156.03;;;22.28;39.13
70343;BME280;57767;42.068;24.752;2023-10-09T00:04:47;99167.56;;;22.34;39.29
70343;BME280;57767;42.068;24.752;2023-10-09T00:05:50;99168.91;;;22.31;39.17
70343;BME280;57767;42.068;24.752;2023-10-09T00:06:55;99154.97;;;22.24;39.31
70343;BME280;57767;42.068;24.752;2023-10-09T00:08:01;99154.69;;;22.26;39.50
70343;BME280;57767;42.068;24.752;2023-10-09T00:09:05;99154.69;;;22.26;39.38
70343;BME280;57767;42.068;24.752;2023-10-09T00:10:33;99159.53;;;22.24;39.76
70343;BME280;57767;42.068;24.752;2023-10-09T00:11:46;99164.13;;;22.23;39.50
70343;BME280;57767;42.068;24.752;2023-10-09T00:12:49;99154.44;;;22.22;39.64
70343;BME280;57767;42.068;24.752;2023-10-09T00:13:51;99153.09;;;22.20;39.74
70343;BME280;57767;42.068;24.752;2023-10-09T00:14:53;99156.59;;;22.20;40.16
70343;BME280;57767;42.068;24.752;2023-10-09T00:16:04;99146.94;;;22.14;40.00
70343;BME280;57767;42.068;24.752;2023-10-09T00:17:16;99152.34;;;22.09;39.97
70343;BME280;57767;42.068;24.752;2023-10-09T00:18:22;99152.63;;;22.07;40.24
70343;BME280;57767;42.068;24.752;2023-10-09T00:19:30;99150.72;;;22.08;40.28
70343;BME280;57767;42.068;24.752;2023-10-09T00:20:40;99156.66;;;22.05;40.18
70343;BME280;57767;42.068;24.752;2023-10-09T00:21:45;99151.56;;;22.03;40.11
70343;BME280;57767;42.068;24.752;2023-10-09T00:22:47;99154.25;;;22.03;40.18
70343;BME280;57767;42.068;24.752;2023-10-09T00:23:48;99157.22;;;22.02;40.49
70343;BME280;57767;42.068;24.752;2023-10-09T00:25:00;99143.50;;;21.98;40.69
70343;BME280;57767;42.068;24.752;2023-10-09T00:26:23;99150.50;;;21.99;40.62
70343;BME280;57767;42.068;24.752;2023-10-09T00:27:24;99146.44;;;21.97;40.57
70343;BME280;57767;42.068;24.752;2023-10-09T00:28:33;99142.94;;;21.96;40.71
70343;BME280;57767;42.068;24.752;2023-10-09T00:29:35;99145.38;;;21.93;40.64
70343;BME280;57767;42.068;24.752;2023-10-09T00:30:43;99141.66;;;21.89;40.62
70343;BME280;57767;42.068;24.752;2023-10-09T00:31:45;99140.03;;;21.88;40.82
70343;BME280;57767;42.068;24.752;2023-10-09T00:32:51;99148.91;;;21.88;40.63
70343;BME280;57767;42.068;24.752;2023-10-09T00:34:01;99148.09;;;21.83;40.98
70343;BME280;57767;42.068;24.752;2023-10-09T00:35:06;99138.69;;;21.80;41.09
70343;BME280;57767;42.068;24.752;2023-10-09T00:36:26;99147.03;;;21.78;41.12
70343;BME280;57767;42.068;24.752;2023-10-09T00:37:31;99142.75;;;21.77;41.02
70343;BME280;57767;42.068;24.752;2023-10-09T00:38:37;99147.34;;;21.72;41.42
70343;BME280;57767;42.068;24.752;2023-10-09T00:39:46;99148.16;;;21.72;41.74
70343;BME280;57767;42.068;24.752;2023-10-09T00:40:50;99146.53;;;21.71;41.67
70343;BME280;57767;42.068;24.752;2023-10-09T00:42:11;99150.84;;;21.67;41.30
70343;BME280;57767;42.068;24.752;2023-10-09T00:43:27;99162.13;;;21.69;41.58
70343;BME280;57767;42.068;24.752;2023-10-09T00:44:32;99155.69;;;21.65;41.68
70343;BME280;57767;42.068;24.752;2023-10-09T00:45:49;99150.88;;;21.62;41.77
70343;BME280;57767;42.068;24.752;2023-10-09T00:46:52;99153.56;;;21.62;41.78
70343;BME280;57767;42.068;24.752;2023-10-09T00:47:55;99157.31;;;21.61;41.49
70343;BME280;57767;42.068;24.752;2023-10-09T00:49:00;99160.81;;;21.57;41.86
70343;BME280;57767;42.068;24.752;2023-10-09T00:50:08;99151.97;;;21.51;42.08
70343;BME280;57767;42.068;24.752;2023-10-09T00:51:23;99149.81;;;21.48;42.05
70343;BME280;57767;42.068;24.752;2023-10-09T00:52:30;99162.97;;;21.50;42.38
70343;BME280;57767;42.068;24.752;2023-10-09T00:53:34;99165.13;;;21.48;42.16
70343;BME280;57767;42.068;24.752;2023-10-09T00:54:36;99167.28;;;21.45;42.46
70343;BME280;57767;42.068;24.752;2023-10-09T00:55:42;99170.22;;;21.44;42.49
70343;BME280;57767;42.068;24.752;2023-10-09T00:56:44;99167.00;;;21.42;42.24
70343;BME280;57767;42.068;24.752;2023-10-09T00:57:54;99162.72;;;21.36;42.36
70343;BME280;57767;42.068;24.752;2023-10-09T00:59:01;99177.50;;;21.38;42.59
70343;BME280;57767;42.068;24.752;2023-10-09T01:00:24;99176.16;;;21.31;42.60
70343;BME280;57767;42.068;24.752;2023-10-09T01:01:45;99176.16;;;21.31;42.57
70343;BME280;57767;42.068;24.752;2023-10-09T01:03:00;99176.16;;;21.26;42.66
70343;BME280;57767;42.068;24.752;2023-10-09T01:04:20;99177.25;;;21.25;42.85
70343;BME280;57767;42.068;24.752;2023-10-09T01:05:24;99169.19;;;21.20;42.67
70343;BME280;57767;42.068;24.752;2023-10-09T01:06:28;99176.16;;;21.21;43.14
70343;BME280;57767;42.068;24.752;2023-10-09T01:07:35;99176.94;;;21.16;42.88
70343;BME280;57767;42.068;24.752;2023-10-09T01:08:39;99180.41;;;21.17;43.19
70343;BME280;57767;42.068;24.752;2023-10-09T01:09:42;99175.34;;;21.10;43.16
70343;BME280;57767;42.068;24.752;2023-10-09T01:10:46;99177.22;;;21.09;43.24
70343;BME280;57767;42.068;24.752;2023-10-09T01:11:57;99188.75;;;21.10;43.49
70343;BME280;57767;42.068;24.752;2023-10-09T01:13:03;99184.72;;;21.07;43.35
70343;BME280;57767;42.068;24.752;2023-10-09T01:14:05;99185.78;;;21.06;43.44
70343;BME280;57767;42.068;24.752;2023-10-09T01:15:10;99194.91;;;21.05;43.31
70343;BME280;57767;42.068;24.752;2023-10-09T01:16:32;99191.19;;;21.01;43.51
70343;BME280;57767;42.068;24.752;2023-10-09T01:17:34;99187.94;;;20.94;43.41
70343;BME280;57767;42.068;24.752;2023-10-09T01:18:40;99193.88;;;21.01;43.82
70343;BME280;57767;42.068;24.752;2023-10-09T01:19:42;99185.78;;;20.96;43.73
70343;BME280;57767;42.068;24.752;2023-10-09T01:20:45;99182.03;;;20.92;43.60
70343;BME280;57767;42.068;24.752;2023-10-09T01:21:47;99193.06;;;21.01;43.81
70343;BME280;57767;42.068;24.752;2023-10-09T01:22:49;99194.13;;;21.00;43.81
70343;BME280;57767;42.068;24.752;2023-10-09T01:23:55;99201.13;;;21.01;43.80
70343;BME280;57767;42.068;24.752;2023-10-09T01:25:09;99192.22;;;20.95;43.65
70343;BME280;57767;42.068;24.752;2023-10-09T01:26:11;99201.63;;;20.98;43.93
70343;BME280;57767;42.068;24.752;2023-10-09T01:27:13;99198.41;;;20.96;43.98
70343;BME280;57767;42.068;24.752;2023-10-09T01:28:17;99201.34;;;20.94;43.89
70343;BME280;57767;42.068;24.752;2023-10-09T01:29:21;99199.19;;;20.91;44.04
70343;BME280;57767;42.068;24.752;2023-10-09T01:30:23;99190.06;;;20.92;44.01
70343;BME280;57767;42.068;24.752;2023-10-09T01:31:25;99204.56;;;20.91;43.89
70343;BME280;57767;42.068;24.752;2023-10-09T01:32:39;99201.38;;;20.89;44.16
70343;BME280;57767;42.068;24.752;2023-10-09T01:33:42;99206.75;;;20.89;43.87
70343;BME280;57767;42.068;24.752;2023-10-09T01:34:44;99204.84;;;20.85;44.06
70343;BME280;57767;42.068;24.752;2023-10-09T01:35:48;99209.94;;;20.86;44.20
70343;BME280;57767;42.068;24.752;2023-10-09T01:36:52;99214.25;;;20.87;44.05
70343;BME280;57767;42.068;24.752;2023-10-09T01:37:57;99214.22;;;20.82;44.38
70343;BME280;57767;42.068;24.752;2023-10-09T01:38:59;99221.50;;;20.87;44.20
70343;BME280;57767;42.068;24.752;2023-10-09T01:40:02;99227.66;;;20.87;44.27
70343;BME280;57767;42.068;24.752;2023-10-09T01:41:23;99216.91;;;20.77;44.27
70343;BME280;57767;42.068;24.752;2023-10-09T01:42:25;99231.16;;;20.88;44.44
70343;BME280;57767;42.068;24.752;2023-10-09T01:43:36;99229.78;;;20.80;44.50
70343;BME280;57767;42.068;24.752;2023-10-09T01:44:40;99226.28;;;20.80;44.57
70343;BME280;57767;42.068;24.752;2023-10-09T01:45:45;99232.47;;;20.80;44.49
70343;BME280;57767;42.068;24.752;2023-10-09T01:46:48;99237.28;;;20.78;44.80
70343;BME280;57767;42.068;24.752;2023-10-09T01:47:54;99240.25;;;20.77;44.76
70343;BME280;57767;42.068;24.752;2023-10-09T01:48:56;99236.22;;;20.74;44.73
70343;BME280;57767;42.068;24.752;2023-10-09T01:50:00;99240.25;;;20.77;44.51
70343;BME280;57767;42.068;24.752;2023-10-09T01:51:13;99234.31;;;20.69;44.85
70343;BME280;57767;42.068;24.752;2023-10-09T01:52:16;99238.63;;;20.70;44.95
70343;BME280;57767;42.068;24.752;2023-10-09T01:53:18;99247.50;;;20.76;44.76
70343;BME280;57767;42.068;24.752;2023-10-09T01:54:20;99237.56;;;20.71;44.91
70343;BME280;57767;42.068;24.752;2023-10-09T01:55:54;99244.28;;;20.74;44.68
70343;BME280;57767;42.068;24.752;2023-10-09T01:56:57;99236.19;;;20.69;45.05
70343;BME280;57767;42.068;24.752;2023-10-09T01:57:59;99246.16;;;20.73;45.01
70343;BME280;57767;42.068;24.752;2023-10-09T01:59:19;99237.78;;;20.65;45.11
70343;BME280;57767;42.068;24.752;2023-10-09T02:00:21;99252.28;;;20.69;45.01
70343;BME280;57767;42.068;24.752;2023-10-09T02:01:30;99258.22;;;20.71;44.89
70343;BME280;57767;42.068;24.752;2023-10-09T02:02:33;99245.84;;;20.65;45.20
70343;BME280;57767;42.068;24.752;2023-10-09T02:03:35;99250.69;;;20.63;45.16
70343;BME280;57767;42.068;24.752;2023-10-09T02:04:39;99253.09;;;20.69;44.92
70343;BME280;57767;42.068;24.752;2023-10-09T02:05:44;99257.66;;;20.69;45.12
70343;BME280;57767;42.068;24.752;2023-10-09T02:06:45;99263.84;;;20.69;45.00
70343;BME280;57767;42.068;24.752;2023-10-09T02:07:47;99264.66;;;20.70;44.81
70343;BME280;57767;42.068;24.752;2023-10-09T02:08:54;99265.47;;;20.70;44.68
70343;BME280;57767;42.068;24.752;2023-10-09T02:09:57;99278.59;;;20.67;44.49
70343;BME280;57767;42.068;24.752;2023-10-09T02:10:59;99271.34;;;20.62;44.68
70343;BME280;57767;42.068;24.752;2023-10-09T02:12:03;99277.22;;;20.59;45.11
70343;BME280;57767;42.068;24.752;2023-10-09T02:13:06;99279.88;;;20.54;44.62
70343;BME280;57767;42.068;24.752;2023-10-09T02:14:11;99284.44;;;20.54;44.96
70343;BME280;57767;42.068;24.752;2023-10-09T02:15:25;99287.38;;;20.52;44.97
70343;BME280;57767;42.068;24.752;2023-10-09T02:16:48;99293.00;;;20.46;44.90
70343;BME280;57767;42.068;24.752;2023-10-09T02:18:12;99293.50;;;20.37;45.13
70343;BME280;57767;42.068;24.752;2023-10-09T02:19:20;99291.00;;;20.31;44.89
70343;BME280;57767;42.068;24.752;2023-10-09T02:20:33;99273.50;;;20.13;45.10
70343;BME280;57767;42.068;24.752;2023-10-09T02:21:39;99301.97;;;20.24;45.30
70343;BME280;57767;42.068;24.752;2023-10-09T02:22:46;99305.69;;;20.18;45.28
70343;BME280;57767;42.068;24.752;2023-10-09T02:23:48;99309.94;;;20.14;45.33
70343;BME280;57767;42.068;24.752;2023-10-09T02:24:49;99328.25;;;20.22;45.44
70343;BME280;57767;42.068;24.752;2023-10-09T02:25:59;99342.66;;;20.16;45.62
70343;BME280;57767;42.068;24.752;2023-10-09T02:27:09;99346.22;;;19.90;46.33
70343;BME280;57767;42.068;24.752;2023-10-09T02:28:12;99347.94;;;19.42;47.86
70343;BME280;57767;42.068;24.752;2023-10-09T02:29:19;99359.41;;;19.11;48.60
70343;BME280;57767;42.068;24.752;2023-10-09T02:30:25;99365.75;;;18.83;49.37
70343;BME280;57767;42.068;24.752;2023-10-09T02:31:30;99380.06;;;18.55;49.78
70343;BME280;57767;42.068;24.752;2023-10-09T02:32:43;99389.69;;;18.34;49.86
70343;BME280;57767;42.068;24.752;2023-10-09T02:33:45;99390.41;;;18.13;49.74
70343;BME280;57767;42.068;24.752;2023-10-09T02:34:46;99392.44;;;17.89;50.19
70343;BME280;57767;42.068;24.752;2023-10-09T02:35:48;99397.19;;;17.87;49.72
70343;BME280;57767;42.068;24.752;2023-10-09T02:36:52;99402.56;;;17.59;50.67
70343;BME280;57767;42.068;24.752;2023-10-09T02:38:07;99404.09;;;17.26;51.21
70343;BME280;57767;42.068;24.752;2023-10-09T02:39:10;99406.81;;;17.14;51.58
70343;BME280;57767;42.068;24.752;2023-10-09T02:40:28;99412.06;;;16.98;52.02
70343;BME280;57767;42.068;24.752;2023-10-09T02:41:41;99406.97;;;16.84;52.71
70343;BME280;57767;42.068;24.752;2023-10-09T02:42:51;99379.09;;;16.64;52.62
70343;BME280;57767;42.068;24.752;2023-10-09T02:43:52;99407.72;;;16.80;52.66
70343;BME280;57767;42.068;24.752;2023-10-09T02:44:56;99404.03;;;16.69;52.96
70343;BME280;57767;42.068;24.752;2023-10-09T02:46:01;99412.53;;;16.60;52.92
70343;BME280;57767;42.068;24.752;2023-10-09T02:47:16;99410.38;;;16.45;53.37
70343;BME280;57767;42.068;24.752;2023-10-09T02:48:31;99424.75;;;16.56;52.93
70343;BME280;57767;42.068;24.752;2023-10-09T02:49:38;99426.38;;;16.45;53.25
70343;BME280;57767;42.068;24.752;2023-10-09T02:50:42;99436.53;;;16.48;53.00
70343;BME280;57767;42.068;24.752;2023-10-09T02:51:46;99430.19;;;16.37;52.61
70343;BME280;57767;42.068;24.752;2023-10-09T02:52:54;99421.81;;;16.34;52.78
70343;BME280;57767;42.068;24.752;2023-10-09T02:54:09;99434.31;;;16.22;53.01
70343;BME280;57767;42.068;24.752;2023-10-09T02:55:28;99438.16;;;16.14;52.96
70343;BME280;57767;42.068;24.752;2023-10-09T02:56:30;99443.13;;;16.10;53.47
70343;BME280;57767;42.068;24.752;2023-10-09T02:57:44;99437.06;;;15.92;53.66
70343;BME280;57767;42.068;24.752;2023-10-09T02:58:47;99451.78;;;15.94;52.99
70343;BME280;57767;42.068;24.752;2023-10-09T02:59:49;99452.69;;;15.88;53.11
70343;BME280;57767;42.068;24.752;2023-10-09T03:00:53;99454.53;;;15.88;53.38
70343;BME280;57767;42.068;24.752;2023-10-09T03:01:54;99457.31;;;15.81;53.02
70343;BME280;57767;42.068;24.752;2023-10-09T03:02:56;99459.84;;;15.76;52.94
70343;BME280;57767;42.068;24.752;2023-10-09T03:04:01;99455.53;;;15.75;53.11
70343;BME280;57767;42.068;24.752;2023-10-09T03:05:04;99458.75;;;15.65;53.37
70343;BME280;57767;42.068;24.752;2023-10-09T03:06:05;99462.81;;;15.50;53.60
70343;BME280;57767;42.068;24.752;2023-10-09T03:07:12;99456.31;;;15.46;53.67
70343;BME280;57767;42.068;24.752;2023-10-09T03:08:15;99451.19;;;15.32;53.83
70343;BME280;57767;42.068;24.752;2023-10-09T03:09:18;99467.28;;;15.37;53.94
70343;BME280;57767;42.068;24.752;2023-10-09T03:10:27;99460.91;;;15.38;53.33
70343;BME280;57767;42.068;24.752;2023-10-09T03:11:29;99471.19;;;15.35;53.58
70343;BME280;57767;42.068;24.752;2023-10-09T03:12:33;99471.88;;;15.30;53.79
70343;BME280;57767;42.068;24.752;2023-10-09T03:13:36;99480.69;;;15.31;53.52
70343;BME280;57767;42.068;24.752;2023-10-09T03:14:40;99477.03;;;15.25;53.44
70343;BME280;57767;42.068;24.752;2023-10-09T03:15:43;99476.97;;;15.14;54.03
70343;BME280;57767;42.068;24.752;2023-10-09T03:16:44;99480.06;;;15.11;54.03
70343;BME280;57767;42.068;24.752;2023-10-09T03:17:46;99480.16;;;15.04;54.14
70343;BME280;57767;42.068;24.752;2023-10-09T03:18:52;99465.16;;;14.91;54.13
70343;BME280;57767;42.068;24.752;2023-10-09T03:19:54;99482.06;;;14.97;54.16
70343;BME280;57767;42.068;24.752;2023-10-09T03:20:56;99484.38;;;14.93;53.92
70343;BME280;57767;42.068;24.752;2023-10-09T03:21:57;99479.75;;;14.82;54.37
70343;BME280;57767;42.068;24.752;2023-10-09T03:22:59;99491.59;;;14.86;54.52
70343;BME280;57767;42.068;24.752;2023-10-09T03:24:03;99485.31;;;14.81;54.40
70343;BME280;57767;42.068;24.752;2023-10-09T03:25:08;99494.44;;;14.66;54.48
70343;BME280;57767;42.068;24.752;2023-10-09T03:26:16;99490.41;;;14.57;54.75
70343;BME280;57767;42.068;24.752;2023-10-09T03:27:22;99492.94;;;14.52;54.87
70343;BME280;57767;42.068;24.752;2023-10-09T03:28:24;99503.28;;;14.60;54.53
70343;BME280;57767;42.068;24.752;2023-10-09T03:29:26;99509.41;;;14.61;54.33
70343;BME280;57767;42.068;24.752;2023-10-09T03:30:29;99501.72;;;14.53;54.89
70343;BME280;57767;42.068;24.752;2023-10-09T03:31:34;99497.47;;;14.45;54.25
70343;BME280;57767;42.068;24.752;2023-10-09T03:32:35;99493.19;;;14.44;54.22
70343;BME280;57767;42.068;24.752;2023-10-09T03:33:38;99493.22;;;14.38;54.17
70343;BME280;57767;42.068;24.752;2023-10-09T03:34:39;99495.88;;;14.38;54.32
70343;BME280;57767;42.068;24.752;2023-10-09T03:35:41;99496.38;;;14.28;54.52
70343;BME280;57767;42.068;24.752;2023-10-09T03:36:43;99493.72;;;14.28;54.71
70343;BME280;57767;42.068;24.752;2023-10-09T03:37:46;99505.03;;;14.17;54.71
70343;BME280;57767;42.068;24.752;2023-10-09T03:38:48;99502.81;;;14.14;55.01
70343;BME280;57767;42.068;24.752;2023-10-09T03:39:49;99496.97;;;13.98;54.96
70343;BME280;57767;42.068;24.752;2023-10-09T03:40:56;99510.38;;;14.10;54.68
70343;BME280;57767;42.068;24.752;2023-10-09T03:41:58;99515.28;;;14.07;54.89
70343;BME280;57767;42.068;24.752;2023-10-09T03:43:00;99512.50;;;13.95;55.14
70343;BME280;57767;42.068;24.752;2023-10-09T03:44:02;99501.94;;;13.88;55.70
70343;BME280;57767;42.068;24.752;2023-10-09T03:45:05;99513.59;;;13.87;55.73
70343;BME280;57767;42.068;24.752;2023-10-09T03:46:20;99514.22;;;13.83;56.28
70343;BME280;57767;42.068;24.752;2023-10-09T03:47:23;99512.97;;;13.85;56.18
70343;BME280;57767;42.068;24.752;2023-10-09T03:48:26;99518.69;;;13.89;56.03
70343;BME280;57767;42.068;24.752;2023-10-09T03:49:33;99513.38;;;13.89;56.62
70343;BME280;57767;42.068;24.752;2023-10-09T03:50:35;99516.06;;;13.82;56.68
70343;BME280;57767;42.068;24.752;2023-10-09T03:51:39;99509.94;;;13.82;56.86
70343;BME280;57767;42.068;24.752;2023-10-09T03:52:41;99508.94;;;13.76;56.49
70343;BME280;57767;42.068;24.752;2023-10-09T03:53:43;99516.09;;;13.76;56.27
70343;BME280;57767;42.068;24.752;2023-10-09T03:54:45;99509.41;;;13.67;57.30
70343;BME280;57767;42.068;24.752;2023-10-09T03:55:48;99522.03;;;13.71;56.67
70343;BME280;57767;42.068;24.752;2023-10-09T03:56:50;99525.09;;;13.68;56.52
70343;BME280;57767;42.068;24.752;2023-10-09T03:57:52;99515.56;;;13.60;57.76
70343;BME280;57767;42.068;24.752;2023-10-09T03:58:54;99523.06;;;13.70;57.09
70343;BME280;57767;42.068;24.752;2023-10-09T03:59:56;99536.94;;;13.72;57.07
70343;BME280;57767;42.068;24.752;2023-10-09T04:00:58;99534.88;;;13.74;57.19
70343;BME280;57767;42.068;24.752;2023-10-09T04:02:00;99530.59;;;13.73;57.40
70343;BME280;57767;42.068;24.752;2023-10-09T04:03:01;99532.22;;;13.74;57.37
70343;BME280;57767;42.068;24.752;2023-10-09T04:04:06;99526.94;;;13.74;57.10
70343;BME280;57767;42.068;24.752;2023-10-09T04:05:12;99536.06;;;13.85;57.45
70343;BME280;57767;42.068;24.752;2023-10-09T04:06:13;99530.94;;;13.83;56.77
70343;BME280;57767;42.068;24.752;2023-10-09T04:07:19;99538.28;;;13.88;56.99
70343;BME280;57767;42.068;24.752;2023-10-09T04:08:20;99546.03;;;13.89;57.84
70343;BME280;57767;42.068;24.752;2023-10-09T04:09:22;99505.94;;;13.66;58.11
70343;BME280;57767;42.068;24.752;2023-10-09T04:10:24;99522.22;;;13.76;57.71
70343;BME280;57767;42.068;24.752;2023-10-09T04:11:46;99523.44;;;13.80;57.98
70343;BME280;57767;42.068;24.752;2023-10-09T04:12:47;99535.25;;;13.84;57.75
70343;BME280;57767;42.068;24.752;2023-10-09T04:13:54;99538.31;;;13.81;57.39
70343;BME280;57767;42.068;24.752;2023-10-09T04:14:57;99538.75;;;13.78;57.53
70343;BME280;57767;42.068;24.752;2023-10-09T04:16:03;99535.06;;;13.79;57.54
70343;BME280;57767;42.068;24.752;2023-10-09T04:17:25;99536.72;;;13.80;57.32
70343;BME280;57767;42.068;24.752;2023-10-09T04:18:36;99537.13;;;13.77;57.25
70343;BME280;57767;42.068;24.752;2023-10-09T04:19:40;99536.53;;;13.75;57.25
70343;BME280;57767;42.068;24.752;2023-10-09T04:20:49;99537.59;;;13.68;58.65
70343;BME280;57767;42.068;24.752;2023-10-09T04:22:16;99535.56;;;13.63;59.44
70343;BME280;57767;42.068;24.752;2023-10-09T04:23:28;99549.03;;;13.61;59.12
70343;BME280;57767;42.068;24.752;2023-10-09T04:24:48;99545.41;;;13.49;57.82
70343;BME280;57767;42.068;24.752;2023-10-09T04:25:52;99554.38;;;13.55;58.60
70343;BME280;57767;42.068;24.752;2023-10-09T04:26:54;99550.72;;;13.49;57.43
70343;BME280;57767;42.068;24.752;2023-10-09T04:27:59;99556.63;;;13.51;58.96
70343;BME280;57767;42.068;24.752;2023-10-09T04:29:16;99560.09;;;13.52;57.85
70343;BME280;57767;42.068;24.752;2023-10-09T04:30:28;99527.94;;;13.29;58.90
70343;BME280;57767;42.068;24.752;2023-10-09T04:31:30;99551.97;;;13.40;59.19
70343;BME280;57767;42.068;24.752;2023-10-09T04:32:39;99559.72;;;13.42;59.29
70343;BME280;57767;42.068;24.752;2023-10-09T04:33:41;99557.69;;;13.37;58.42
70343;BME280;57767;42.068;24.752;2023-10-09T04:34:55;99551.78;;;13.35;58.36
70343;BME280;57767;42.068;24.752;2023-10-09T04:36:20;99571.53;;;13.46;59.24
70343;BME280;57767;42.068;24.752;2023-10-09T04:37:22;99567.25;;;13.45;57.84
70343;BME280;57767;42.068;24.752;2023-10-09T04:38:38;99569.88;;;13.45;57.80
70343;BME280;57767;42.068;24.752;2023-10-09T04:39:43;99571.97;;;13.36;57.34
70343;BME280;57767;42.068;24.752;2023-10-09T04:41:13;99559.16;;;13.26;57.60
70343;BME280;57767;42.068;24.752;2023-10-09T04:42:28;99577.69;;;13.40;57.55
70343;BME280;57767;42.068;24.752;2023-10-09T04:43:38;99574.00;;;13.34;57.58
70343;BME280;57767;42.068;24.752;2023-10-09T04:44:46;99571.75;;;13.38;57.83
70343;BME280;57767;42.068;24.752;2023-10-09T04:46:04;99577.06;;;13.38;57.51
70343;BME280;57767;42.068;24.752;2023-10-09T04:47:08;99574.41;;;13.38;57.25
70343;BME280;57767;42.068;24.752;2023-10-09T04:48:15;99585.44;;;13.35;56.89
70343;BME280;57767;42.068;24.752;2023-10-09T04:49:35;99583.00;;;13.26;56.97
70343;BME280;57767;42.068;24.752;2023-10-09T04:51:06;99586.47;;;13.20;57.04
70343;BME280;57767;42.068;24.752;2023-10-09T04:52:23;99574.44;;;13.11;56.90
70343;BME280;57767;42.068;24.752;2023-10-09T04:53:31;99587.50;;;13.19;57.77
70343;BME280;57767;42.068;24.752;2023-10-09T04:54:40;99589.75;;;13.22;56.87
70343;BME280;57767;42.068;24.752;2023-10-09T04:56:02;99593.81;;;13.18;56.80
70343;BME280;57767;42.068;24.752;2023-10-09T04:57:06;99594.84;;;13.17;56.41
70343;BME280;57767;42.068;24.752;2023-10-09T04:58:23;99599.56;;;13.15;56.74
70343;BME280;57767;42.068;24.752;2023-10-09T04:59:27;99601.97;;;13.10;56.24
70343;BME280;57767;42.068;24.752;2023-10-09T05:00:30;99601.34;;;13.08;56.30
70343;BME280;57767;42.068;24.752;2023-10-09T05:01:31;99610.31;;;13.07;55.79
70343;BME280;57767;42.068;24.752;2023-10-09T05:02:38;99602.19;;;13.02;56.10
70343;BME280;57767;42.068;24.752;2023-10-09T05:03:40;99606.25;;;13.05;55.77
70343;BME280;57767;42.068;24.752;2023-10-09T05:04:42;99608.31;;;13.03;55.28
70343;BME280;57767;42.068;24.752;2023-10-09T05:05:44;99603.81;;;13.03;55.26
70343;BME280;57767;42.068;24.752;2023-10-09T05:06:47;99606.69;;;13.02;55.01
70343;BME280;57767;42.068;24.752;2023-10-09T05:07:56;99601.59;;;13.00;54.93
70343;BME280;57767;42.068;24.752;2023-10-09T05:08:58;99622.38;;;13.03;55.02
70343;BME280;57767;42.068;24.752;2023-10-09T05:10:09;99617.47;;;13.07;55.51
70343;BME280;57767;42.068;24.752;2023-10-09T05:11:21;99614.00;;;13.06;55.20
70343;BME280;57767;42.068;24.752;2023-10-09T05:12:46;99623.38;;;13.09;55.33
70343;BME280;57767;42.068;24.752;2023-10-09T05:13:48;99614.81;;;13.07;55.21
70343;BME280;57767;42.068;24.752;2023-10-09T05:14:59;99625.63;;;13.05;55.36
70343;BME280;57767;42.068;24.752;2023-10-09T05:16:15;99617.66;;;13.05;55.22
70343;BME280;57767;42.068;24.752;2023-10-09T05:17:20;99618.09;;;13.09;55.50
70343;BME280;57767;42.068;24.752;2023-10-09T05:18:27;99623.38;;;13.09;55.19
70343;BME280;57767;42.068;24.752;2023-10-09T05:19:29;99611.97;;;13.08;56.00
70343;BME280;57767;42.068;24.752;2023-10-09T05:20:35;99618.13;;;13.15;55.09
70343;BME280;57767;42.068;24.752;2023-10-09T05:21:55;99616.66;;;13.13;55.17
70343;BME280;57767;42.068;24.752;2023-10-09T05:22:59;99618.31;;;13.20;54.71
70343;BME280;57767;42.068;24.752;2023-10-09T05:24:21;99622.19;;;13.24;55.06
70343;BME280;57767;42.068;24.752;2023-10-09T05:25:27;99632.78;;;13.24;54.91
70343;BME280;57767;42.068;24.752;2023-10-09T05:26:54;99627.91;;;13.15;54.08
70343;BME280;57767;42.068;24.752;2023-10-09T05:28:13;99632.41;;;13.14;53.89
70343;BME280;57767;42.068;24.752;2023-10-09T05:29:33;99631.34;;;13.09;54.41
70343;BME280;57767;42.068;24.752;2023-10-09T05:30:34;99638.47;;;13.08;53.69
70343;BME280;57767;42.068;24.752;2023-10-09T05:31:36;99640.31;;;13.08;54.11
70343;BME280;57767;42.068;24.752;2023-10-09T05:32:57;99645.41;;;13.09;53.98
70343;BME280;57767;42.068;24.752;2023-10-09T05:34:25;99644.78;;;13.07;53.44
70343;BME280;57767;42.068;24.752;2023-10-09T05:35:35;99641.97;;;13.02;53.73
70343;BME280;57767;42.068;24.752;2023-10-09T05:36:56;99651.31;;;13.05;53.18
70343;BME280;57767;42.068;24.752;2023-10-09T05:38:12;99651.53;;;13.03;53.58
70343;BME280;57767;42.068;24.752;2023-10-09T05:39:24;99655.81;;;12.98;52.78
70343;BME280;57767;42.068;24.752;2023-10-09T05:40:43;99643.38;;;12.98;53.28
70343;BME280;57767;42.068;24.752;2023-10-09T05:41:47;99657.88;;;13.02;52.65
70343;BME280;57767;42.068;24.752;2023-10-09T05:43:01;99658.47;;;12.98;53.18
70343;BME280;57767;42.068;24.752;2023-10-09T05:44:04;99660.72;;;13.01;52.88
70343;BME280;57767;42.068;24.752;2023-10-09T05:45:25;99663.97;;;13.03;52.23
70343;BME280;57767;42.068;24.752;2023-10-09T05:47:05;99666.63;;;12.96;52.96
70343;BME280;57767;42.068;24.752;2023-10-09T05:48:25;99662.75;;;12.99;52.32
70343;BME280;57767;42.068;24.752;2023-10-09T05:49:27;99677.44;;;13.01;52.65
70343;BME280;57767;42.068;24.752;2023-10-09T05:50:47;99667.47;;;13.03;52.04
70343;BME280;57767;42.068;24.752;2023-10-09T05:51:57;99669.09;;;13.04;51.79
70343;BME280;57767;42.068;24.752;2023-10-09T05:53:19;99676.00;;;13.05;52.30